Branch, Louisiana
Current Conditions -  °F | °C
As of 10:35 PM on Wednesday 26 Nov 2014 (Local Time) from KOPL Reporting Station
Clear Clear  
Wind Chill: 50°   Ceiling: Unl
Heat Index: 50°   Visibility: 10mi
Dew Point: 46°   Wind: 3mph
Humidity: 88%   Direction: 260°W
Pressure: 30.27"   Gusts: NA
Location:  30.35°N, 92.27°W
Report Text: KOPL 270435Z AUTO 26003KT 10SM CLR 10/08 A3027 RMK AO2 T00980079
Loading
Personal Weather Stations






























Interactive Weather Map New forecast layout! Learn more

10-Day Weather Forecast

Advertisements
Track Severe Weather on mobile